Time;durP1;ratioP1;P1;durP2;ratioP2;P2;SDS_P1;SDS_P2;PMS_P1;PMS_P2;Temp;Humidity;BMP_temperature;BMP_pressure;BME280_temperature;BME280_humidity;BME280_pressure;Samples;Min_cycle;Max_cycle;Signal;HPM_P1;HPM_P2
2021/12/09 00:00:25;;;;;;;77.10;31.92;;;;;;;;;;5020532;28;20075;-37
2021/12/09 00:02:51;;;;;;;76.60;31.10;;;;;;;;;;5028429;28;20032;-37
2021/12/09 00:05:17;;;;;;;76.72;30.77;;;;;;;;;;5020434;28;20756;-38
2021/12/09 00:07:44;;;;;;;78.82;31.00;;;;;;;;;;5021074;28;20098;-37
2021/12/09 00:10:11;;;;;;;74.75;31.17;;;;;;;;;;5021896;28;20068;-37
2021/12/09 00:12:38;;;;;;;77.28;29.77;;;;;;;;;;5024391;28;20381;-37
2021/12/09 00:15:04;;;;;;;73.63;30.42;;;;;;;;;;5022741;28;20018;-37
2021/12/09 00:17:30;;;;;;;79.55;31.70;;;;;;;;;;5023304;28;20465;-37
2021/12/09 00:19:56;;;;;;;88.30;32.28;;;;;;;;;;5019910;28;20126;-37
2021/12/09 00:22:22;;;;;;;82.10;32.60;;;;;;;;;;5022709;28;20049;-37
2021/12/09 00:24:48;;;;;;;81.20;31.80;;;;;;;;;;5024386;28;20020;-37
2021/12/09 00:27:14;;;;;;;83.50;32.08;;;;;;;;;;5020728;28;20501;-37
2021/12/09 00:29:40;;;;;;;91.53;33.78;;;;;;;;;;5022169;28;20080;-37
2021/12/09 00:32:07;;;;;;;79.80;32.63;;;;;;;;;;5019361;28;20030;-37
2021/12/09 00:34:35;;;;;;;89.45;33.17;;;;;;;;;;5020886;28;20573;-37
2021/12/09 00:37:31;;;;;;;84.20;32.28;;;;;;;;;;5017722;28;20033;-37
2021/12/09 00:39:51;;;;;;;84.57;32.83;;;;;;;;;;5022778;28;20567;-37
2021/12/09 00:42:18;;;;;;;87.43;33.20;;;;;;;;;;5019823;28;20033;-37
2021/12/09 00:44:44;;;;;;;82.93;34.20;;;;;;;;;;5020232;28;20028;-37
2021/12/09 00:47:10;;;;;;;89.35;34.67;;;;;;;;;;5017876;28;20046;-37
2021/12/09 00:49:36;;;;;;;83.90;32.08;;;;;;;;;;5022685;28;20053;-37
2021/12/09 00:52:03;;;;;;;88.57;33.33;;;;;;;;;;5016951;28;20473;-37
2021/12/09 00:54:29;;;;;;;91.00;32.53;;;;;;;;;;5024236;28;20088;-37
2021/12/09 00:56:55;;;;;;;89.38;33.83;;;;;;;;;;5019259;28;20461;-37
2021/12/09 00:59:21;;;;;;;89.90;34.80;;;;;;;;;;5016733;28;20025;-37
2021/12/09 01:01:47;;;;;;;87.32;32.88;;;;;;;;;;5015443;28;20104;-37
2021/12/09 01:04:13;;;;;;;77.65;31.27;;;;;;;;;;5018246;28;20049;-37
2021/12/09 01:06:39;;;;;;;84.72;34.38;;;;;;;;;;5016956;28;20125;-37
2021/12/09 01:09:06;;;;;;;78.28;31.30;;;;;;;;;;5023585;28;20049;-37
2021/12/09 01:11:32;;;;;;;91.07;34.80;;;;;;;;;;5026253;28;20056;-37
2021/12/09 01:13:58;;;;;;;87.88;35.13;;;;;;;;;;5025663;28;20024;-37
2021/12/09 01:16:24;;;;;;;87.57;32.50;;;;;;;;;;5024128;28;20076;-37
2021/12/09 01:18:50;;;;;;;84.95;32.63;;;;;;;;;;5025283;28;20053;-37
2021/12/09 01:21:16;;;;;;;86.18;32.85;;;;;;;;;;5021705;28;20080;-37
2021/12/09 01:23:42;;;;;;;85.13;34.63;;;;;;;;;;5020341;28;20034;-37
2021/12/09 01:26:09;;;;;;;87.85;34.20;;;;;;;;;;5021730;28;20029;-37
2021/12/09 01:28:46;;;;;;;82.75;32.70;;;;;;;;;;5027731;28;20326;-37
2021/12/09 01:31:20;;;;;;;84.85;33.28;;;;;;;;;;5020791;28;20068;-37
2021/12/09 01:33:47;;;;;;;95.35;34.08;;;;;;;;;;5026162;28;20507;-37
2021/12/09 01:36:13;;;;;;;88.38;31.10;;;;;;;;;;5024875;28;20037;-37
2021/12/09 01:38:39;;;;;;;91.25;32.47;;;;;;;;;;5037103;28;20087;-37
2021/12/09 01:41:05;;;;;;;86.28;33.75;;;;;;;;;;5028402;28;20107;-37
2021/12/09 01:43:31;;;;;;;86.53;33.35;;;;;;;;;;5027447;28;20022;-37
2021/12/09 01:46:03;;;;;;;92.20;31.77;;;;;;;;;;5028028;28;20025;-37
2021/12/09 01:48:29;;;;;;;91.95;32.38;;;;;;;;;;5024485;28;20029;-37
2021/12/09 01:50:55;;;;;;;96.65;34.08;;;;;;;;;;5028803;28;20361;-37
2021/12/09 01:53:21;;;;;;;85.28;33.00;;;;;;;;;;5027628;28;20471;-37
2021/12/09 01:55:47;;;;;;;81.25;30.48;;;;;;;;;;5027029;28;20065;-37
2021/12/09 01:58:13;;;;;;;85.63;32.50;;;;;;;;;;5026849;28;20026;-37
2021/12/09 02:00:39;;;;;;;87.35;29.70;;;;;;;;;;5027900;28;20076;-37
2021/12/09 02:03:06;;;;;;;87.47;31.08;;;;;;;;;;5028014;28;20060;-37
2021/12/09 02:05:32;;;;;;;84.18;30.73;;;;;;;;;;5026101;28;20023;-37
2021/12/09 02:07:58;;;;;;;82.60;31.70;;;;;;;;;;5026997;28;20018;-37
2021/12/09 02:10:26;;;;;;;82.30;30.33;;;;;;;;;;5025702;28;20063;-37
2021/12/09 02:12:52;;;;;;;77.45;30.25;;;;;;;;;;5028496;28;20476;-37
2021/12/09 02:15:20;;;;;;;75.53;29.30;;;;;;;;;;5027072;28;20021;-37
2021/12/09 02:17:46;;;;;;;80.00;29.55;;;;;;;;;;5024249;28;20071;-37
2021/12/09 02:20:13;;;;;;;83.20;31.98;;;;;;;;;;5030322;28;20480;-37
2021/12/09 02:22:43;;;;;;;96.93;32.83;;;;;;;;;;5031888;28;20068;-37
2021/12/09 02:25:09;;;;;;;88.80;31.23;;;;;;;;;;5031216;28;20026;-37
2021/12/09 02:27:35;;;;;;;87.85;31.15;;;;;;;;;;5028829;28;20518;-37
2021/12/09 02:30:01;;;;;;;86.50;31.92;;;;;;;;;;5030352;28;20104;-37
2021/12/09 02:32:27;;;;;;;81.32;32.92;;;;;;;;;;5031312;28;20487;-37
2021/12/09 02:34:53;;;;;;;90.38;33.75;;;;;;;;;;5031496;28;20053;-37
2021/12/09 02:37:20;;;;;;;92.32;33.72;;;;;;;;;;5030304;28;20043;-37
2021/12/09 02:39:46;;;;;;;89.43;32.72;;;;;;;;;;5026531;28;20030;-37
2021/12/09 02:42:12;;;;;;;87.25;32.92;;;;;;;;;;5035744;28;20045;-37
2021/12/09 02:44:39;;;;;;;90.38;33.53;;;;;;;;;;5037125;28;20032;-37
2021/12/09 02:47:05;;;;;;;94.80;33.42;;;;;;;;;;5030531;28;20017;-37
2021/12/09 02:49:33;;;;;;;87.40;33.70;;;;;;;;;;5029584;28;20060;-37
2021/12/09 02:51:59;;;;;;;91.15;35.28;;;;;;;;;;5026641;28;20037;-37
2021/12/09 02:54:26;;;;;;;105.30;35.28;;;;;;;;;;5039006;28;20045;-37
2021/12/09 02:56:53;;;;;;;91.30;34.35;;;;;;;;;;5018546;28;20029;-37
2021/12/09 02:59:19;;;;;;;96.07;35.20;;;;;;;;;;5019267;28;20032;-37
2021/12/09 03:02:00;;;;;;;90.82;35.33;;;;;;;;;;5020567;28;20117;-37
2021/12/09 03:04:38;;;;;;;99.32;32.78;;;;;;;;;;5020526;28;20029;-37
2021/12/09 03:07:08;;;;;;;93.10;32.38;;;;;;;;;;5020067;28;20060;-37
2021/12/09 03:09:35;;;;;;;99.78;34.65;;;;;;;;;;5019602;28;20113;-37
2021/12/09 03:12:05;;;;;;;93.32;35.17;;;;;;;;;;5017803;28;20026;-37
2021/12/09 03:14:31;;;;;;;94.38;34.25;;;;;;;;;;5021082;28;20029;-37
2021/12/09 03:16:57;;;;;;;104.28;34.67;;;;;;;;;;5023067;28;20228;-37
2021/12/09 03:19:23;;;;;;;97.10;35.15;;;;;;;;;;5020395;28;20032;-37
2021/12/09 03:21:49;;;;;;;88.63;32.63;;;;;;;;;;5017263;28;20022;-37
2021/12/09 03:24:17;;;;;;;98.95;35.10;;;;;;;;;;5019480;28;20061;-37
2021/12/09 03:26:55;;;;;;;101.13;33.45;;;;;;;;;;5020240;28;20029;-37
2021/12/09 03:29:22;;;;;;;100.45;35.13;;;;;;;;;;5019633;28;20364;-37
2021/12/09 03:31:49;;;;;;;100.13;36.38;;;;;;;;;;5021138;28;20078;-37
2021/12/09 03:34:16;;;;;;;102.72;35.80;;;;;;;;;;5018061;28;20025;-37
2021/12/09 03:36:43;;;;;;;95.05;35.60;;;;;;;;;;5014605;28;20480;-37
2021/12/09 03:39:13;;;;;;;95.03;33.92;;;;;;;;;;5015653;28;20160;-37
2021/12/09 03:41:39;;;;;;;92.22;35.13;;;;;;;;;;5018989;28;20491;-36
2021/12/09 03:44:05;;;;;;;88.00;32.40;;;;;;;;;;5019293;28;20509;-37
2021/12/09 03:46:31;;;;;;;91.55;34.53;;;;;;;;;;5020330;28;20031;-37
2021/12/09 03:48:57;;;;;;;93.78;35.55;;;;;;;;;;5019605;28;20025;-37
2021/12/09 03:51:23;;;;;;;90.88;35.47;;;;;;;;;;5020655;28;20034;-37
2021/12/09 03:53:51;;;;;;;105.93;36.10;;;;;;;;;;5021607;28;20053;-37
2021/12/09 03:56:17;;;;;;;106.10;37.53;;;;;;;;;;5016689;28;20072;-37
2021/12/09 03:58:43;;;;;;;96.45;36.03;;;;;;;;;;5017279;28;20040;-37
2021/12/09 04:01:09;;;;;;;90.25;34.67;;;;;;;;;;5019523;28;20445;-37
2021/12/09 04:03:35;;;;;;;105.60;36.53;;;;;;;;;;5015806;28;20037;-37
2021/12/09 04:06:01;;;;;;;89.32;35.72;;;;;;;;;;5017124;28;20034;-37
2021/12/09 04:08:27;;;;;;;98.60;33.75;;;;;;;;;;5021490;28;20069;-37
2021/12/09 04:10:53;;;;;;;96.57;34.45;;;;;;;;;;5013714;28;20021;-37
2021/12/09 04:13:19;;;;;;;102.10;35.20;;;;;;;;;;5016109;28;20025;-37
2021/12/09 04:15:47;;;;;;;95.68;34.22;;;;;;;;;;5017767;28;20046;-37
2021/12/09 04:18:14;;;;;;;87.05;33.20;;;;;;;;;;5019247;28;20148;-36
2021/12/09 04:20:40;;;;;;;98.18;35.00;;;;;;;;;;5018761;28;20029;-37
2021/12/09 04:23:07;;;;;;;105.43;35.00;;;;;;;;;;5021720;28;20435;-37
2021/12/09 04:25:33;;;;;;;89.60;31.25;;;;;;;;;;5019218;28;20104;-36
2021/12/09 04:27:59;;;;;;;104.10;34.17;;;;;;;;;;5018890;28;20530;-36
2021/12/09 04:30:26;;;;;;;91.80;34.80;;;;;;;;;;5019203;28;20030;-37
2021/12/09 04:32:53;;;;;;;109.10;35.35;;;;;;;;;;5019170;28;20118;-36
2021/12/09 04:35:19;;;;;;;102.65;36.33;;;;;;;;;;5019994;28;20435;-37
2021/12/09 04:37:45;;;;;;;97.47;35.85;;;;;;;;;;5019414;28;20064;-37
2021/12/09 04:40:12;;;;;;;100.07;35.92;;;;;;;;;;5016722;28;20029;-37
2021/12/09 04:42:39;;;;;;;102.32;35.97;;;;;;;;;;5015108;28;20030;-37
2021/12/09 04:45:05;;;;;;;96.35;35.10;;;;;;;;;;5018932;28;20045;-37
2021/12/09 04:47:32;;;;;;;107.65;35.38;;;;;;;;;;5018441;28;20049;-37
2021/12/09 04:49:58;;;;;;;97.85;34.40;;;;;;;;;;5019449;28;20439;-37
2021/12/09 04:52:24;;;;;;;100.55;34.67;;;;;;;;;;5018067;28;20464;-37
2021/12/09 04:54:50;;;;;;;95.90;34.97;;;;;;;;;;5015079;28;20054;-37
2021/12/09 04:57:16;;;;;;;103.30;37.10;;;;;;;;;;5021385;28;20075;-37
2021/12/09 04:59:43;;;;;;;100.43;34.25;;;;;;;;;;5017769;28;20136;-37
2021/12/09 05:02:14;;;;;;;105.60;35.92;;;;;;;;;;5020356;28;20645;-36
2021/12/09 05:04:40;;;;;;;105.78;36.08;;;;;;;;;;5017312;28;20030;-37
2021/12/09 05:07:06;;;;;;;110.13;38.60;;;;;;;;;;5016746;28;20480;-37
2021/12/09 05:09:38;;;;;;;112.22;36.70;;;;;;;;;;5014905;28;20072;-37
2021/12/09 05:12:05;;;;;;;101.18;34.67;;;;;;;;;;5017325;28;20488;-37
2021/12/09 05:14:31;;;;;;;101.35;36.22;;;;;;;;;;5014239;28;20377;-37
2021/12/09 05:16:57;;;;;;;94.93;34.95;;;;;;;;;;5014357;28;20472;-37
2021/12/09 05:19:24;;;;;;;103.45;36.08;;;;;;;;;;5018522;28;20849;-36
2021/12/09 05:21:52;;;;;;;100.47;32.78;;;;;;;;;;5015315;28;20112;-37
2021/12/09 05:24:19;;;;;;;96.65;35.25;;;;;;;;;;5013773;28;20029;-37
2021/12/09 05:26:49;;;;;;;94.00;34.17;;;;;;;;;;5017629;28;20041;-37
2021/12/09 05:29:16;;;;;;;123.82;38.00;;;;;;;;;;5017806;28;20449;-37
2021/12/09 05:34:27;;;;;;;103.93;34.30;;;;;;;;;;5014646;28;20056;-37
2021/12/09 05:36:53;;;;;;;99.45;36.08;;;;;;;;;;5012668;28;20112;-37
2021/12/09 05:39:19;;;;;;;94.85;34.85;;;;;;;;;;5016147;28;20061;-36
2021/12/09 05:41:46;;;;;;;114.43;38.22;;;;;;;;;;5017566;28;20068;-36
2021/12/09 05:44:12;;;;;;;103.50;36.00;;;;;;;;;;5013687;28;20018;-37
2021/12/09 05:46:40;;;;;;;103.50;36.22;;;;;;;;;;5017040;28;20014;-37
2021/12/09 05:49:07;;;;;;;108.75;37.30;;;;;;;;;;5013325;28;20037;-37
2021/12/09 05:51:33;;;;;;;105.30;37.58;;;;;;;;;;5016383;28;20036;-37
2021/12/09 05:53:59;;;;;;;102.65;35.05;;;;;;;;;;5042542;28;20064;-37
2021/12/09 05:56:25;;;;;;;108.70;36.13;;;;;;;;;;5027852;28;20064;-37
2021/12/09 05:58:51;;;;;;;94.70;36.90;;;;;;;;;;5030135;28;20030;-37
2021/12/09 06:01:17;;;;;;;94.90;36.08;;;;;;;;;;5034273;28;20464;-37
2021/12/09 06:03:43;;;;;;;98.30;35.10;;;;;;;;;;5030791;28;20022;-37
2021/12/09 06:06:11;;;;;;;103.25;35.50;;;;;;;;;;5033709;28;20022;-37
2021/12/09 06:08:39;;;;;;;98.63;34.97;;;;;;;;;;5028686;28;20068;-37
2021/12/09 06:11:06;;;;;;;100.88;35.75;;;;;;;;;;5028098;28;20021;-36
2021/12/09 06:13:33;;;;;;;101.03;35.72;;;;;;;;;;5014536;28;20026;-37
2021/12/09 06:16:00;;;;;;;98.55;35.75;;;;;;;;;;5027992;28;20013;-37
2021/12/09 06:18:26;;;;;;;87.78;34.88;;;;;;;;;;5033237;28;20487;-37
2021/12/09 06:20:52;;;;;;;98.57;35.83;;;;;;;;;;5033880;28;20033;-37
2021/12/09 06:23:18;;;;;;;105.53;35.30;;;;;;;;;;5040026;28;20025;-37
2021/12/09 06:25:44;;;;;;;111.78;37.60;;;;;;;;;;5029896;28;20049;-37
2021/12/09 06:28:10;;;;;;;106.90;35.38;;;;;;;;;;5017390;28;20026;-37
2021/12/09 06:30:36;;;;;;;107.25;37.47;;;;;;;;;;5024512;28;20060;-37
2021/12/09 06:33:05;;;;;;;118.60;39.15;;;;;;;;;;5021194;28;20065;-37
2021/12/09 06:35:31;;;;;;;89.72;34.40;;;;;;;;;;5022247;28;20023;-37
2021/12/09 06:37:57;;;;;;;114.65;36.28;;;;;;;;;;5019254;28;20113;-37
2021/12/09 06:40:24;;;;;;;103.88;37.65;;;;;;;;;;5018289;28;20025;-37
2021/12/09 06:42:51;;;;;;;108.85;37.05;;;;;;;;;;5021202;28;20045;-37
2021/12/09 06:45:18;;;;;;;101.97;36.13;;;;;;;;;;5018919;28;20056;-37
2021/12/09 06:47:44;;;;;;;122.50;36.92;;;;;;;;;;5024306;28;20481;-37
2021/12/09 06:50:11;;;;;;;94.32;35.67;;;;;;;;;;5022144;28;20424;-36
2021/12/09 06:52:37;;;;;;;104.88;36.92;;;;;;;;;;5022088;28;20060;-37
2021/12/09 06:55:08;;;;;;;112.93;38.65;;;;;;;;;;5022109;28;20030;-37
2021/12/09 06:57:35;;;;;;;116.55;38.17;;;;;;;;;;5023398;28;20037;-37
2021/12/09 07:00:01;;;;;;;96.65;34.88;;;;;;;;;;5025213;28;20026;-37
2021/12/09 07:02:27;;;;;;;104.07;37.20;;;;;;;;;;5018709;28;20087;-37
2021/12/09 07:04:53;;;;;;;108.22;37.38;;;;;;;;;;5017977;28;20036;-37
2021/12/09 07:07:19;;;;;;;112.15;37.60;;;;;;;;;;5019285;28;20453;-37
2021/12/09 07:09:45;;;;;;;101.63;36.28;;;;;;;;;;5019512;28;20440;-37
2021/12/09 07:12:11;;;;;;;110.25;38.65;;;;;;;;;;5018204;28;20440;-37
2021/12/09 07:14:39;;;;;;;106.60;36.53;;;;;;;;;;5020818;28;20026;-37
2021/12/09 07:17:05;;;;;;;105.20;34.22;;;;;;;;;;5019149;28;20022;-37
2021/12/09 07:19:31;;;;;;;99.03;35.38;;;;;;;;;;5023562;28;20105;-37
2021/12/09 07:21:57;;;;;;;104.75;37.22;;;;;;;;;;5018333;28;20036;-37
2021/12/09 07:24:23;;;;;;;105.72;34.78;;;;;;;;;;5019156;28;20069;-37
2021/12/09 07:26:49;;;;;;;103.43;36.50;;;;;;;;;;5021775;28;20052;-38
2021/12/09 07:29:15;;;;;;;106.40;37.63;;;;;;;;;;5023881;28;20058;-37
2021/12/09 07:31:41;;;;;;;103.95;36.65;;;;;;;;;;5025230;28;20520;-37
2021/12/09 07:34:07;;;;;;;107.22;37.90;;;;;;;;;;5024994;28;20038;-37
2021/12/09 07:36:33;;;;;;;110.50;36.10;;;;;;;;;;5028217;28;20021;-37
2021/12/09 07:38:59;;;;;;;107.72;36.70;;;;;;;;;;5020183;28;20041;-37
2021/12/09 07:41:26;;;;;;;121.32;40.17;;;;;;;;;;5028260;28;20080;-37
2021/12/09 07:43:53;;;;;;;123.05;39.97;;;;;;;;;;5029491;28;20603;-38
2021/12/09 07:46:19;;;;;;;110.35;39.42;;;;;;;;;;5027137;28;20071;-36
2021/12/09 07:48:45;;;;;;;115.03;38.75;;;;;;;;;;5026909;28;20049;-38
2021/12/09 07:51:11;;;;;;;124.10;38.75;;;;;;;;;;5026783;28;20036;-38
2021/12/09 07:53:37;;;;;;;103.07;35.97;;;;;;;;;;5030238;28;20053;-39
2021/12/09 07:56:03;;;;;;;107.03;33.80;;;;;;;;;;5028278;28;20029;-38
2021/12/09 07:58:32;;;;;;;100.05;35.38;;;;;;;;;;5028152;28;20045;-37
2021/12/09 08:00:58;;;;;;;106.10;35.38;;;;;;;;;;5024594;28;20607;-38
2021/12/09 08:03:24;;;;;;;103.80;37.15;;;;;;;;;;5030941;28;20028;-39
2021/12/09 08:05:50;;;;;;;112.05;38.83;;;;;;;;;;5030042;28;20028;-39
2021/12/09 08:08:16;;;;;;;107.43;37.75;;;;;;;;;;5029767;28;21417;-40
2021/12/09 08:10:42;;;;;;;107.18;36.85;;;;;;;;;;5025131;28;20465;-37
2021/12/09 08:13:08;;;;;;;112.30;37.63;;;;;;;;;;5030173;28;20043;-37
2021/12/09 08:15:38;;;;;;;104.22;36.60;;;;;;;;;;5031152;28;20728;-39
2021/12/09 08:20:40;;;;;;;104.60;35.50;;;;;;;;;;5028281;28;20037;-37
2021/12/09 08:23:06;;;;;;;95.90;34.85;;;;;;;;;;5031071;28;20259;-38
2021/12/09 08:25:32;;;;;;;112.25;34.45;;;;;;;;;;5031404;28;20106;-37
2021/12/09 08:27:58;;;;;;;92.60;33.70;;;;;;;;;;5030331;28;20096;-39
2021/12/09 08:30:25;;;;;;;101.32;35.03;;;;;;;;;;5025816;28;20488;-38
2021/12/09 08:32:52;;;;;;;96.72;35.75;;;;;;;;;;5026550;28;20431;-39
2021/12/09 08:35:19;;;;;;;91.22;33.60;;;;;;;;;;5030314;28;20026;-39
2021/12/09 08:37:46;;;;;;;94.13;35.22;;;;;;;;;;5028019;28;20026;-37
2021/12/09 08:40:13;;;;;;;108.13;34.22;;;;;;;;;;5029912;23;20042;-39
2021/12/09 08:42:39;;;;;;;95.10;35.00;;;;;;;;;;5003477;28;20026;-39
2021/12/09 08:45:08;;;;;;;107.32;37.08;;;;;;;;;;5006130;28;20229;-39
2021/12/09 08:47:35;;;;;;;100.05;36.35;;;;;;;;;;5006905;28;20129;-38
2021/12/09 08:50:01;;;;;;;96.15;36.10;;;;;;;;;;5010729;28;20036;-39
2021/12/09 08:52:27;;;;;;;99.95;35.90;;;;;;;;;;5007572;28;20026;-38
2021/12/09 08:54:53;;;;;;;91.28;34.90;;;;;;;;;;5009710;28;20034;-39
2021/12/09 08:57:22;;;;;;;88.43;35.55;;;;;;;;;;5009788;28;20057;-39
2021/12/09 08:59:48;;;;;;;90.65;32.25;;;;;;;;;;5012135;28;20026;-39
2021/12/09 09:02:14;;;;;;;105.00;38.03;;;;;;;;;;5009683;28;20473;-39
2021/12/09 09:04:40;;;;;;;96.85;32.92;;;;;;;;;;5010215;28;20044;-38
2021/12/09 09:07:07;;;;;;;105.25;36.25;;;;;;;;;;5007020;28;20089;-39
2021/12/09 09:09:34;;;;;;;103.57;37.30;;;;;;;;;;5007150;28;20029;-40
2021/12/09 09:12:04;;;;;;;107.47;37.17;;;;;;;;;;5007046;28;20178;-39
2021/12/09 09:14:30;;;;;;;98.95;36.20;;;;;;;;;;5008621;28;20137;-39
2021/12/09 09:16:56;;;;;;;95.95;34.53;;;;;;;;;;5009596;28;20034;-39
2021/12/09 09:19:23;;;;;;;98.97;34.92;;;;;;;;;;5010690;28;20080;-39
2021/12/09 09:21:49;;;;;;;95.03;34.42;;;;;;;;;;5011317;28;20048;-39
2021/12/09 09:24:15;;;;;;;94.25;34.25;;;;;;;;;;5009918;28;20026;-40
2021/12/09 09:26:42;;;;;;;93.82;34.95;;;;;;;;;;5010423;28;20104;-39
2021/12/09 09:29:08;;;;;;;105.93;36.65;;;;;;;;;;5007888;28;20026;-39
2021/12/09 09:31:34;;;;;;;93.80;36.42;;;;;;;;;;4997246;28;20582;-39
2021/12/09 09:34:02;;;;;;;107.35;37.50;;;;;;;;;;5013442;28;20025;-39
2021/12/09 09:36:29;;;;;;;101.55;35.20;;;;;;;;;;5012077;28;20022;-39
2021/12/09 09:39:00;;;;;;;104.57;37.70;;;;;;;;;;5009116;28;20116;-39
2021/12/09 09:41:32;;;;;;;102.57;35.35;;;;;;;;;;5007188;28;20044;-39
2021/12/09 09:44:10;;;;;;;98.93;35.60;;;;;;;;;;5017552;28;20026;-39
2021/12/09 09:46:36;;;;;;;100.32;36.25;;;;;;;;;;5015055;28;20112;-38
2021/12/09 09:49:03;;;;;;;104.53;35.53;;;;;;;;;;5010448;28;20026;-38
2021/12/09 09:51:30;;;;;;;94.32;35.25;;;;;;;;;;5012697;28;20030;-39
2021/12/09 09:53:57;;;;;;;104.70;35.47;;;;;;;;;;5016925;28;20045;-39
2021/12/09 09:56:24;;;;;;;102.53;34.10;;;;;;;;;;5010590;28;20042;-38
2021/12/09 09:58:58;;;;;;;91.13;32.72;;;;;;;;;;5009036;28;20021;-38
2021/12/09 10:01:24;;;;;;;100.70;34.38;;;;;;;;;;5010210;28;20033;-38
2021/12/09 10:03:58;;;;;;;94.82;34.72;;;;;;;;;;5013780;28;20022;-39
2021/12/09 10:06:24;;;;;;;85.18;34.95;;;;;;;;;;5011285;28;20118;-39
2021/12/09 10:08:50;;;;;;;89.93;33.22;;;;;;;;;;5009607;28;20133;-38
2021/12/09 10:11:16;;;;;;;88.57;33.38;;;;;;;;;;5008803;28;20065;-38
2021/12/09 10:13:43;;;;;;;96.18;33.60;;;;;;;;;;5009042;28;20054;-38
2021/12/09 10:16:17;;;;;;;81.53;32.50;;;;;;;;;;5006512;28;20493;-38
2021/12/09 10:18:45;;;;;;;95.70;34.20;;;;;;;;;;5005932;28;20049;-39
2021/12/09 10:21:12;;;;;;;89.68;34.35;;;;;;;;;;4996558;28;20104;-39
2021/12/09 10:23:45;;;;;;;80.32;32.03;;;;;;;;;;4999395;28;20622;-38
2021/12/09 10:26:22;;;;;;;86.55;29.95;;;;;;;;;;5004871;28;20022;-39
2021/12/09 10:28:52;;;;;;;90.47;33.03;;;;;;;;;;5004757;28;20492;-38
2021/12/09 10:31:20;;;;;;;91.63;34.03;;;;;;;;;;5002834;28;20116;-39
2021/12/09 10:37:05;;;;;;;84.53;32.20;;;;;;;;;;4982613;28;20092;-38
2021/12/09 10:39:50;;;;;;;84.90;30.75;;;;;;;;;;4988878;28;20388;-38
2021/12/09 10:42:26;;;;;;;82.57;32.70;;;;;;;;;;5014929;28;20069;-39
2021/12/09 10:44:55;;;;;;;88.70;33.45;;;;;;;;;;5013546;28;20026;-39
2021/12/09 10:47:36;;;;;;;85.25;32.78;;;;;;;;;;5010272;28;20045;-39
2021/12/09 10:50:11;;;;;;;84.95;32.45;;;;;;;;;;5011397;28;20033;-38
2021/12/09 10:52:43;;;;;;;85.35;32.88;;;;;;;;;;5013356;28;20514;-39
2021/12/09 10:55:27;;;;;;;86.10;32.22;;;;;;;;;;5019214;28;20128;-36
2021/12/09 10:58:13;;;;;;;82.57;31.17;;;;;;;;;;5023067;28;20029;-36
2021/12/09 11:00:39;;;;;;;83.57;32.22;;;;;;;;;;5001991;28;20065;-36
2021/12/09 11:03:15;;;;;;;87.65;32.80;;;;;;;;;;5020840;28;20034;-37
2021/12/09 11:06:00;;;;;;;79.25;30.38;;;;;;;;;;5031842;28;20105;-37
2021/12/09 11:08:31;;;;;;;79.43;30.27;;;;;;;;;;5033810;28;20053;-37
2021/12/09 11:10:58;;;;;;;83.50;29.15;;;;;;;;;;5021784;28;20030;-38
2021/12/09 11:13:25;;;;;;;80.82;33.58;;;;;;;;;;5015042;28;20034;-37
2021/12/09 11:15:56;;;;;;;89.80;33.75;;;;;;;;;;5023045;28;20064;-36
2021/12/09 11:18:30;;;;;;;81.05;31.63;;;;;;;;;;5013704;28;20092;-36
2021/12/09 11:20:56;;;;;;;81.53;32.85;;;;;;;;;;5011612;28;20132;-41
2021/12/09 11:23:26;;;;;;;79.82;30.65;;;;;;;;;;5007640;28;20032;-36
2021/12/09 11:25:53;;;;;;;81.65;31.45;;;;;;;;;;5011641;28;20064;-38
2021/12/09 11:28:19;;;;;;;92.80;33.08;;;;;;;;;;5013148;28;20029;-39
2021/12/09 11:31:03;;;;;;;89.65;35.97;;;;;;;;;;5009721;28;20026;-39
2021/12/09 11:33:32;;;;;;;81.68;31.10;;;;;;;;;;5003477;28;20026;-38
2021/12/09 11:35:58;;;;;;;83.55;32.83;;;;;;;;;;5011610;28;20030;-38
2021/12/09 11:38:43;;;;;;;88.45;33.38;;;;;;;;;;5010324;28;20124;-38
2021/12/09 11:41:27;;;;;;;83.80;33.25;;;;;;;;;;4993942;28;20121;-38
2021/12/09 11:43:54;;;;;;;79.15;32.08;;;;;;;;;;5010157;28;20018;-37
2021/12/09 11:46:20;;;;;;;93.70;33.78;;;;;;;;;;5009376;28;20057;-37
2021/12/09 11:48:46;;;;;;;89.10;32.83;;;;;;;;;;5016048;28;20054;-36
2021/12/09 11:51:12;;;;;;;88.47;32.50;;;;;;;;;;5011213;28;20457;-37
2021/12/09 11:53:42;;;;;;;79.00;30.70;;;;;;;;;;5010570;28;20045;-36
2021/12/09 11:56:22;;;;;;;85.68;31.58;;;;;;;;;;5010561;28;20022;-38
2021/12/09 12:12:59;;;;;;;90.57;33.25;;;;;;;;;;5009501;28;20136;-38
2021/12/09 12:15:42;;;;;;;86.70;31.90;;;;;;;;;;5005422;28;20036;-38
2021/12/09 12:18:59;;;;;;;79.93;33.20;;;;;;;;;;5006666;28;20033;-36
2021/12/09 12:27:17;;;;;;;89.40;33.20;;;;;;;;;;5010640;28;20515;-39
2021/12/09 12:35:16;;;;;;;86.72;32.40;;;;;;;;;;5011107;28;20037;-37
2021/12/09 12:40:40;;;;;;;81.63;31.75;;;;;;;;;;5003957;28;20059;-37
2021/12/09 12:43:11;;;;;;;76.93;33.33;;;;;;;;;;5013732;28;20141;-37
2021/12/09 12:48:47;;;;;;;74.13;32.13;;;;;;;;;;5021968;28;20033;-37
2021/12/09 12:53:52;;;;;;;87.43;33.65;;;;;;;;;;5009620;28;20046;-37
2021/12/09 12:56:20;;;;;;;83.95;35.35;;;;;;;;;;5011033;28;20113;-38
2021/12/09 12:59:16;;;;;;;84.93;32.33;;;;;;;;;;5021953;28;20026;-38
2021/12/09 13:02:06;;;;;;;84.72;30.85;;;;;;;;;;5014439;28;20116;-38
2021/12/09 13:04:44;;;;;;;88.38;34.15;;;;;;;;;;5004329;28;20614;-38
2021/12/09 13:07:38;;;;;;;73.20;30.90;;;;;;;;;;5012785;28;20396;-38
2021/12/09 13:10:28;;;;;;;88.53;33.00;;;;;;;;;;5011887;28;20063;-38
2021/12/09 13:16:27;;;;;;;85.10;33.13;;;;;;;;;;5010795;28;20037;-38
2021/12/09 13:19:21;;;;;;;86.10;32.67;;;;;;;;;;5017401;28;20026;-38
2021/12/09 13:21:55;;;;;;;79.07;32.28;;;;;;;;;;5007199;28;20046;-38
2021/12/09 13:24:27;;;;;;;82.00;32.90;;;;;;;;;;5009913;28;20045;-38
2021/12/09 13:27:05;;;;;;;87.43;32.17;;;;;;;;;;5011530;28;20036;-38
2021/12/09 13:29:47;;;;;;;74.45;32.65;;;;;;;;;;5011364;28;20507;-38
2021/12/09 13:32:44;;;;;;;91.43;32.75;;;;;;;;;;5001718;28;20101;-38
2021/12/09 13:35:14;;;;;;;95.13;35.95;;;;;;;;;;5011074;28;20065;-37
2021/12/09 13:38:08;;;;;;;90.60;31.55;;;;;;;;;;5016307;28;20041;-38
2021/12/09 13:45:49;;;;;;;83.05;31.95;;;;;;;;;;5008371;28;20541;-36
2021/12/09 13:46:26;;;;;;;78.70;33.08;;;;;;;;;;5008926;28;20057;-36
2021/12/09 13:48:59;;;;;;;79.18;32.08;;;;;;;;;;5008696;28;20026;-38
2021/12/09 13:54:04;;;;;;;84.15;32.33;;;;;;;;;;5006901;28;20088;-38
2021/12/09 13:56:49;;;;;;;82.68;31.30;;;;;;;;;;5004713;28;20064;-36
2021/12/09 13:59:16;;;;;;;83.32;31.88;;;;;;;;;;5010563;28;20054;-39
2021/12/09 14:01:42;;;;;;;85.15;32.58;;;;;;;;;;5006952;28;20498;-38
2021/12/09 14:04:08;;;;;;;79.75;32.10;;;;;;;;;;5011130;28;20030;-38
2021/12/09 14:06:34;;;;;;;87.90;33.17;;;;;;;;;;5007300;28;20633;-36
2021/12/09 14:09:01;;;;;;;94.55;32.88;;;;;;;;;;5013314;28;20022;-39
2021/12/09 14:11:39;;;;;;;90.03;33.15;;;;;;;;;;5008274;28;20346;-37
2021/12/09 14:14:11;;;;;;;85.85;31.85;;;;;;;;;;5007983;28;20066;-37
2021/12/09 14:16:51;;;;;;;98.47;34.70;;;;;;;;;;5009874;28;20030;-38
2021/12/09 14:21:51;;;;;;;78.28;31.63;;;;;;;;;;5011206;28;20445;-39
2021/12/09 14:24:21;;;;;;;92.07;33.10;;;;;;;;;;5010485;28;20041;-37
2021/12/09 14:26:56;;;;;;;88.60;32.33;;;;;;;;;;5012090;28;20032;-37
2021/12/09 14:29:23;;;;;;;87.60;33.60;;;;;;;;;;5011846;28;20381;-37
2021/12/09 14:31:50;;;;;;;82.88;31.42;;;;;;;;;;5011259;28;20105;-38
2021/12/09 14:34:17;;;;;;;78.13;30.10;;;;;;;;;;5007623;28;20038;-38
2021/12/09 14:36:45;;;;;;;96.40;33.67;;;;;;;;;;5011508;28;20061;-37
2021/12/09 14:39:13;;;;;;;90.57;33.83;;;;;;;;;;5009949;28;20025;-36
2021/12/09 14:41:39;;;;;;;102.60;38.92;;;;;;;;;;5012206;28;20045;-38
2021/12/09 14:44:08;;;;;;;91.82;36.08;;;;;;;;;;5009395;28;20018;-38
2021/12/09 14:46:37;;;;;;;96.88;36.13;;;;;;;;;;5012820;28;20018;-38
2021/12/09 14:49:14;;;;;;;92.18;34.67;;;;;;;;;;5005182;28;20092;-38
2021/12/09 14:51:42;;;;;;;101.60;35.20;;;;;;;;;;5007414;28;20129;-38
2021/12/09 14:54:09;;;;;;;92.63;35.33;;;;;;;;;;5007917;28;20017;-37
2021/12/09 14:56:45;;;;;;;89.00;36.28;;;;;;;;;;5010043;28;20048;-36
2021/12/09 14:59:20;;;;;;;89.68;34.92;;;;;;;;;;5008017;28;20105;-37
2021/12/09 15:01:52;;;;;;;91.05;34.83;;;;;;;;;;5008752;28;20026;-39
2021/12/09 15:04:32;;;;;;;99.78;34.03;;;;;;;;;;5008357;28;20014;-38
2021/12/09 15:07:00;;;;;;;97.90;34.70;;;;;;;;;;5009379;28;20025;-39
2021/12/09 15:09:25;;;;;;;99.97;35.65;;;;;;;;;;5007816;28;20100;-37
2021/12/09 15:11:54;;;;;;;88.38;34.53;;;;;;;;;;5013338;28;20449;-36
2021/12/09 15:14:21;;;;;;;93.72;34.92;;;;;;;;;;5010658;28;20030;-36
2021/12/09 15:17:02;;;;;;;85.78;34.05;;;;;;;;;;5013794;28;20038;-37